Time;durP1;ratioP1;P1;durP2;ratioP2;P2;SDS_P1;SDS_P2;PMS_P1;PMS_P2;Temp;Humidity;BMP_temperature;BMP_pressure;BME280_temperature;BME280_humidity;BME280_pressure;Samples;Min_cycle;Max_cycle;Signal;HPM_P1;HPM_P2
2021/07/28 00:00:15;;;;;;;16.37;3.87;;;;;;;18.18;79.82;95911.30;1796510;80;21020;-61
2021/07/28 00:02:44;;;;;;;11.08;3.98;;;;;;;18.17;79.50;95906.91;1796137;80;21064;-60
2021/07/28 00:05:12;;;;;;;11.65;3.90;;;;;;;18.25;79.87;95909.24;1796066;80;21542;-61
2021/07/28 00:07:39;;;;;;;12.55;3.95;;;;;;;18.28;79.61;95909.10;1796381;80;21566;-60
2021/07/28 00:10:07;;;;;;;9.68;3.42;;;;;;;18.32;79.48;95907.56;1795995;79;21013;-61
2021/07/28 00:12:33;;;;;;;9.23;3.95;;;;;;;18.21;80.07;95907.63;1796397;80;21447;-61
2021/07/28 00:15:00;;;;;;;9.85;3.83;;;;;;;18.16;79.75;95904.67;1796110;80;20978;-61
2021/07/28 00:17:28;;;;;;;12.10;4.22;;;;;;;18.19;79.26;95899.67;1796462;79;20971;-61
2021/07/28 00:20:04;;;;;;;13.25;4.03;;;;;;;18.14;79.21;95895.00;1796187;79;21431;-60
2021/07/28 00:25:22;;;;;;;15.25;3.98;;;;;;;18.18;79.45;95895.27;1796582;80;21487;-61
2021/07/28 00:27:50;;;;;;;12.65;3.90;;;;;;;18.22;79.24;95905.34;1796389;79;20981;-61
2021/07/28 00:30:17;;;;;;;13.80;4.90;;;;;;;18.28;79.05;95897.08;1796212;79;20994;-61
2021/07/28 00:32:44;;;;;;;14.45;3.85;;;;;;;18.28;79.05;95897.08;1796370;80;21000;-61
2021/07/28 00:35:11;;;;;;;13.88;3.98;;;;;;;18.24;78.32;95897.66;1796517;80;21004;-61
2021/07/28 00:37:39;;;;;;;12.47;3.70;;;;;;;18.22;78.67;95900.89;1795955;80;21009;-61
2021/07/28 00:40:07;;;;;;;10.10;3.85;;;;;;;18.22;79.28;95904.01;1796522;79;21004;-61
2021/07/28 00:42:34;;;;;;;12.98;3.72;;;;;;;18.16;78.85;95896.67;1796273;79;20981;-61
2021/07/28 00:45:00;;;;;;;13.53;4.12;;;;;;;18.09;79.34;95904.57;1796175;80;21037;-61
2021/07/28 00:47:27;;;;;;;12.43;4.33;;;;;;;18.14;79.70;95893.66;1796051;79;20973;-61
2021/07/28 00:49:53;;;;;;;12.73;3.55;;;;;;;18.11;79.23;95889.33;1796056;80;21029;-61
2021/07/28 00:52:20;;;;;;;13.58;4.10;;;;;;;18.04;79.72;95904.34;1796158;80;21001;-61
2021/07/28 00:54:46;;;;;;;11.20;4.50;;;;;;;18.03;79.83;95898.61;1796496;80;20957;-61
2021/07/28 00:57:13;;;;;;;12.37;4.15;;;;;;;18.05;79.68;95899.42;1778837;80;21531;-61
2021/07/28 00:59:40;;;;;;;16.77;5.30;;;;;;;18.02;79.65;95903.09;1777748;81;20974;-61
2021/07/28 01:02:08;;;;;;;13.93;3.92;;;;;;;17.89;79.80;95901.86;1777706;81;21610;-61
2021/07/28 01:04:35;;;;;;;12.35;4.10;;;;;;;17.89;79.80;95901.86;1777586;80;21021;-61
2021/07/28 01:07:01;;;;;;;15.83;4.75;;;;;;;17.88;79.95;95893.46;1777919;81;20993;-60
2021/07/28 01:09:28;;;;;;;12.50;4.70;;;;;;;17.86;79.23;95889.52;1777787;81;21053;-61
2021/07/28 01:11:59;;;;;;;14.60;4.45;;;;;;;17.82;79.54;95889.27;1777616;80;21555;-61
2021/07/28 01:14:25;;;;;;;14.58;4.72;;;;;;;17.78;79.76;95887.61;1778168;81;21007;-60
2021/07/28 01:16:55;;;;;;;13.80;4.75;;;;;;;17.73;80.08;95890.47;1777489;81;21537;-60
2021/07/28 01:19:38;;;;;;;13.18;3.98;;;;;;;17.69;79.76;95890.69;1777732;81;21065;-61
2021/07/28 01:22:04;;;;;;;10.03;4.20;;;;;;;17.63;80.07;95888.25;1776524;80;21026;-60
2021/07/28 01:24:31;;;;;;;18.23;3.77;;;;;;;17.61;79.86;95887.44;1777877;80;21038;-60
2021/07/28 01:27:01;;;;;;;14.53;4.70;;;;;;;17.61;79.48;95876.77;1777748;80;21020;-60
2021/07/28 01:29:28;;;;;;;8.80;3.80;;;;;;;17.61;80.14;95879.44;1777988;80;20998;-61
2021/07/28 01:31:56;;;;;;;11.28;4.42;;;;;;;17.58;80.20;95883.11;1777744;80;21057;-61
2021/07/28 01:34:23;;;;;;;11.10;3.70;;;;;;;17.59;80.83;95883.96;1777741;81;20978;-61
2021/07/28 01:36:51;;;;;;;12.90;4.42;;;;;;;17.51;80.10;95887.84;1777483;81;21010;-60
2021/07/28 01:39:18;;;;;;;10.00;3.55;;;;;;;17.46;80.37;95880.50;1778084;81;20993;-61
2021/07/28 01:41:58;;;;;;;8.43;3.47;;;;;;;17.36;80.47;95878.25;1777451;80;21010;-61
2021/07/28 01:44:24;;;;;;;10.18;4.53;;;;;;;17.36;80.47;95878.25;1777954;80;21503;-60
2021/07/28 01:46:51;;;;;;;10.78;4.00;;;;;;;17.35;80.58;95885.39;1777610;80;21002;-60
2021/07/28 01:49:18;;;;;;;14.87;4.03;;;;;;;17.41;80.96;95882.92;1777856;81;20978;-60
2021/07/28 01:51:45;;;;;;;9.73;3.58;;;;;;;17.40;80.54;95882.06;1777485;81;21046;-61
2021/07/28 01:54:12;;;;;;;8.78;3.33;;;;;;;17.36;80.99;95880.91;1777799;80;20955;-61
2021/07/28 01:56:42;;;;;;;11.10;3.47;;;;;;;17.36;80.99;95880.91;1777453;80;21037;-60
2021/07/28 01:59:06;;;;;;;8.90;4.03;;;;;;;17.38;80.53;95883.06;1776923;81;21559;-60
2021/07/28 02:01:33;;;;;;;10.60;3.55;;;;;;;17.35;80.60;95882.72;1777707;80;21006;-60
2021/07/28 02:04:00;;;;;;;10.63;3.90;;;;;;;17.41;81.20;95877.59;1777893;81;21010;-60
2021/07/28 02:06:26;;;;;;;8.88;3.45;;;;;;;17.46;81.06;95876.50;1777639;80;21468;-60
2021/07/28 02:08:53;;;;;;;12.47;4.67;;;;;;;17.39;80.27;95865.67;1777220;81;20986;-60
2021/07/28 02:11:19;;;;;;;12.85;3.80;;;;;;;17.39;79.82;95875.48;1777670;81;21019;-60
2021/07/28 02:13:45;;;;;;;17.37;3.70;;;;;;;17.39;79.82;95875.48;1777869;80;20974;-60
2021/07/28 02:16:12;;;;;;;10.88;3.52;;;;;;;17.35;79.86;95878.72;1777911;81;21005;-61
2021/07/28 02:18:38;;;;;;;10.90;3.47;;;;;;;17.34;80.75;95876.10;1777457;80;21014;-61
2021/07/28 02:21:05;;;;;;;12.68;3.40;;;;;;;17.32;80.82;95884.19;1777952;80;20974;-61
2021/07/28 02:23:31;;;;;;;9.35;3.80;;;;;;;17.26;81.53;95879.97;1777590;81;20993;-61
2021/07/28 02:25:58;;;;;;;9.43;3.60;;;;;;;17.26;81.53;95879.97;1777861;80;20986;-60
2021/07/28 02:28:25;;;;;;;9.23;3.25;;;;;;;17.25;81.47;95874.22;1777786;80;20970;-61
2021/07/28 02:30:51;;;;;;;12.78;3.33;;;;;;;17.27;81.27;95876.36;1777710;80;21340;-61
2021/07/28 02:33:18;;;;;;;10.90;3.80;;;;;;;17.32;82.00;95873.98;1777830;80;21018;-60
2021/07/28 02:35:44;;;;;;;12.40;3.67;;;;;;;17.32;82.00;95873.98;1777786;80;20970;-61
2021/07/28 02:38:11;;;;;;;10.28;3.65;;;;;;;17.32;81.06;95871.32;1777942;81;20962;-61
2021/07/28 02:40:37;;;;;;;12.28;3.65;;;;;;;17.39;80.80;95881.67;1777851;80;21504;-60
2021/07/28 02:43:04;;;;;;;14.65;4.25;;;;;;;17.38;80.28;95884.39;1777861;81;21042;-61
2021/07/28 02:45:30;;;;;;;8.50;3.83;;;;;;;17.26;80.77;95884.41;1777846;81;21424;-60
2021/07/28 02:47:57;;;;;;;12.30;3.87;;;;;;;17.22;81.32;95881.02;1777796;81;21038;-60
2021/07/28 02:50:23;;;;;;;13.72;3.87;;;;;;;17.27;81.28;95887.50;1777614;80;21010;-60
2021/07/28 02:52:50;;;;;;;8.63;3.67;;;;;;;17.20;81.14;95876.20;1777434;80;20935;-60
2021/07/28 02:55:16;;;;;;;20.15;4.25;;;;;;;17.27;81.53;95875.03;1777906;81;21009;-60
2021/07/28 02:57:43;;;;;;;11.80;4.30;;;;;;;17.34;81.73;95868.99;1777696;80;20954;-60
2021/07/28 03:00:11;;;;;;;14.68;4.05;;;;;;;17.39;81.37;95867.00;1777593;81;20974;-60
2021/07/28 03:02:38;;;;;;;13.85;3.87;;;;;;;17.34;80.99;95878.77;1777904;81;21021;-60
2021/07/28 03:05:06;;;;;;;10.50;4.47;;;;;;;17.35;81.55;95881.86;1777925;80;21001;-60
2021/07/28 03:07:33;;;;;;;12.43;3.80;;;;;;;17.33;80.93;95886.38;1777755;80;21033;-60
2021/07/28 03:10:01;;;;;;;10.88;4.22;;;;;;;17.24;80.80;95875.63;1777869;80;20998;-61
2021/07/28 03:12:28;;;;;;;9.83;3.92;;;;;;;17.12;81.26;95874.78;1777693;80;21018;-60
2021/07/28 03:14:55;;;;;;;10.48;3.72;;;;;;;17.12;81.26;95874.78;1777940;80;20994;-60
2021/07/28 03:17:22;;;;;;;9.80;3.25;;;;;;;17.11;81.22;95877.03;1777610;80;21085;-60
2021/07/28 03:19:49;;;;;;;14.90;4.20;;;;;;;17.10;81.82;95878.83;1777720;81;21014;-61
2021/07/28 03:22:16;;;;;;;10.58;4.15;;;;;;;17.09;81.63;95873.11;1777670;81;21022;-60
2021/07/28 03:24:43;;;;;;;11.53;4.00;;;;;;;17.17;82.09;95882.14;1777806;80;21546;-61
2021/07/28 03:27:09;;;;;;;9.20;3.47;;;;;;;17.20;82.15;95875.34;1777885;81;20977;-60
2021/07/28 03:29:36;;;;;;;13.35;4.25;;;;;;;17.28;82.08;95879.42;1777673;80;21128;-61
2021/07/28 03:32:03;;;;;;;9.70;3.37;;;;;;;17.28;81.70;95878.09;1777728;81;21037;-61
2021/07/28 03:34:30;;;;;;;15.55;4.00;;;;;;;17.38;82.00;95866.58;1777526;81;21017;-60
2021/07/28 03:36:56;;;;;;;9.65;3.60;;;;;;;17.35;81.11;95867.19;1777802;81;21483;-61
2021/07/28 03:39:23;;;;;;;10.90;3.75;;;;;;;17.37;81.01;95876.00;1777303;81;21065;-60
2021/07/28 03:41:49;;;;;;;9.80;4.12;;;;;;;17.40;81.36;95867.86;1777880;81;21504;-61
2021/07/28 03:44:16;;;;;;;11.55;3.30;;;;;;;17.29;81.86;95870.51;1778108;81;20974;-61
2021/07/28 03:46:42;;;;;;;11.70;4.17;;;;;;;17.29;81.86;95870.51;1777783;81;21065;-60
2021/07/28 03:49:09;;;;;;;11.95;4.25;;;;;;;17.38;81.82;95882.59;1777569;81;21057;-60
2021/07/28 03:51:35;;;;;;;9.20;4.12;;;;;;;17.43;81.61;95879.27;1777908;81;21009;-60
2021/07/28 03:54:02;;;;;;;12.58;4.30;;;;;;;17.51;81.42;95880.28;1777255;81;21037;-60
2021/07/28 03:56:29;;;;;;;10.13;3.35;;;;;;;17.56;81.81;95871.63;1777720;80;21033;-61
2021/07/28 03:58:57;;;;;;;14.45;3.92;;;;;;;17.69;81.86;95878.20;1777579;81;21033;-60
2021/07/28 04:01:24;;;;;;;12.35;3.87;;;;;;;17.78;81.59;95878.73;1777241;81;20982;-61
2021/07/28 04:03:51;;;;;;;12.85;4.10;;;;;;;17.89;81.36;95881.40;1777874;80;20998;-60
2021/07/28 04:06:18;;;;;;;14.10;5.47;;;;;;;17.97;81.31;95883.73;1777871;81;21005;-60
2021/07/28 04:08:45;;;;;;;13.00;4.70;;;;;;;17.97;81.31;95883.73;1777515;80;21010;-61
2021/07/28 04:11:11;;;;;;;16.20;4.42;;;;;;;18.02;80.69;95887.55;1777893;81;21009;-61
2021/07/28 04:13:38;;;;;;;14.33;4.47;;;;;;;18.05;80.52;95880.26;1777991;81;21029;-60
2021/07/28 04:16:05;;;;;;;14.73;4.85;;;;;;;18.04;80.20;95875.87;1777732;80;21009;-61
2021/07/28 04:18:31;;;;;;;13.58;4.47;;;;;;;18.10;80.96;95884.93;1777882;81;21470;-60
2021/07/28 04:20:58;;;;;;;11.97;4.45;;;;;;;18.16;80.87;95881.98;1777256;81;21026;-60
2021/07/28 04:23:24;;;;;;;11.73;5.08;;;;;;;18.14;80.61;95883.88;1777433;80;21019;-61
2021/07/28 04:25:51;;;;;;;18.00;4.67;;;;;;;18.16;80.76;95885.98;1777885;80;21001;-61
2021/07/28 04:28:17;;;;;;;14.43;4.22;;;;;;;18.19;80.87;95879.64;1777971;80;20958;-60
2021/07/28 04:30:44;;;;;;;15.28;4.50;;;;;;;18.23;80.89;95884.40;1777889;81;21021;-61
2021/07/28 04:33:10;;;;;;;12.50;5.22;;;;;;;18.32;80.72;95878.63;1777933;80;21093;-60
2021/07/28 04:35:37;;;;;;;18.65;5.78;;;;;;;18.59;81.01;95872.03;1777366;81;21026;-61
2021/07/28 04:38:03;;;;;;;14.83;4.95;;;;;;;18.59;81.01;95872.03;1777768;80;21471;-60
2021/07/28 04:40:30;;;;;;;11.75;4.22;;;;;;;18.78;80.88;95884.14;1778127;81;20989;-60
2021/07/28 04:42:56;;;;;;;13.78;5.17;;;;;;;18.93;80.71;95877.21;1777643;80;21492;-61
2021/07/28 04:45:22;;;;;;;16.25;4.33;;;;;;;19.03;80.22;95871.83;1777817;81;20982;-60
2021/07/28 04:47:49;;;;;;;8.53;4.42;;;;;;;19.15;79.78;95874.84;1777904;80;20994;-61
2021/07/28 04:50:15;;;;;;;11.93;4.55;;;;;;;19.26;79.38;95873.87;1777638;81;21528;-60
2021/07/28 04:52:42;;;;;;;18.12;4.50;;;;;;;19.41;79.72;95878.47;1777641;81;21068;-61
2021/07/28 04:55:10;;;;;;;16.10;5.28;;;;;;;19.58;79.17;95870.06;1777881;81;20998;-61
2021/07/28 04:57:36;;;;;;;17.50;4.80;;;;;;;19.69;78.58;95869.59;1781683;80;21551;-61
2021/07/28 05:00:04;;;;;;;14.10;4.80;;;;;;;19.83;78.57;95864.38;1787776;80;21077;-61
2021/07/28 05:02:31;;;;;;;12.68;4.50;;;;;;;19.99;77.64;95864.48;1788130;80;21469;-61
2021/07/28 05:04:57;;;;;;;14.05;4.72;;;;;;;20.11;77.18;95866.53;1787754;80;20993;-60
2021/07/28 05:07:23;;;;;;;14.10;4.75;;;;;;;20.23;77.17;95862.33;1787297;80;21033;-61
2021/07/28 05:09:50;;;;;;;19.20;4.92;;;;;;;20.35;76.96;95865.70;1787627;80;21057;-60
2021/07/28 05:12:16;;;;;;;13.53;4.45;;;;;;;20.53;77.26;95863.86;1787427;80;21538;-61
2021/07/28 05:14:43;;;;;;;13.80;4.90;;;;;;;20.67;76.82;95865.84;1787747;80;21041;-60
2021/07/28 05:17:09;;;;;;;15.85;5.85;;;;;;;20.84;76.66;95863.56;1787286;80;21051;-60
2021/07/28 05:19:36;;;;;;;15.10;5.17;;;;;;;20.96;76.26;95861.55;1787643;80;20986;-61
2021/07/28 05:22:03;;;;;;;18.45;5.03;;;;;;;21.10;76.12;95862.14;1787349;80;21049;-61
2021/07/28 05:24:29;;;;;;;12.07;5.30;;;;;;;21.20;75.46;95856.64;1787062;80;21010;-61
2021/07/28 05:26:56;;;;;;;14.90;5.70;;;;;;;21.30;75.24;95856.99;1787935;80;21006;-61
2021/07/28 05:29:22;;;;;;;14.90;5.10;;;;;;;21.37;74.56;95846.30;1787763;80;21033;-61
2021/07/28 05:31:49;;;;;;;16.45;5.40;;;;;;;21.49;74.11;95854.14;1787285;80;21029;-61
2021/07/28 05:34:15;;;;;;;13.38;5.50;;;;;;;21.54;73.50;95850.22;1787778;80;21020;-61
2021/07/28 05:36:41;;;;;;;22.02;5.33;;;;;;;21.57;72.91;95851.41;1787525;80;20970;-61
2021/07/28 05:39:08;;;;;;;24.50;5.33;;;;;;;21.63;72.79;95852.88;1787672;80;20977;-61
2021/07/28 05:41:34;;;;;;;12.55;5.30;;;;;;;21.68;72.19;95852.13;1787605;80;21064;-61
2021/07/28 05:44:07;;;;;;;19.07;5.53;;;;;;;21.76;72.58;95848.98;1787985;80;20969;-60
2021/07/28 05:46:29;;;;;;;17.12;5.80;;;;;;;21.82;69.90;95848.16;1786437;80;21022;-60
2021/07/28 05:48:55;;;;;;;14.28;6.50;;;;;;;21.93;70.89;95845.31;1787486;80;21001;-61
2021/07/28 05:51:22;;;;;;;13.50;5.60;;;;;;;22.03;71.21;95841.98;1787619;80;21009;-61
2021/07/28 05:53:48;;;;;;;18.35;6.20;;;;;;;22.12;70.83;95841.88;1787343;80;20986;-61
2021/07/28 05:56:15;;;;;;;12.37;5.20;;;;;;;22.20;71.54;95829.36;1751751;80;21096;-60
2021/07/28 05:58:41;;;;;;;15.75;6.08;;;;;;;22.32;71.54;95842.54;1794157;80;20974;-60
2021/07/28 06:01:07;;;;;;;15.20;6.03;;;;;;;22.46;71.64;95840.73;1796089;80;21052;-61
2021/07/28 06:03:34;;;;;;;12.07;5.47;;;;;;;22.61;71.48;95839.41;1796574;80;21028;-61
2021/07/28 06:06:00;;;;;;;12.20;5.60;;;;;;;22.77;71.34;95833.92;1796303;79;21495;-63
2021/07/28 06:08:27;;;;;;;14.43;5.05;;;;;;;22.88;71.28;95837.67;1796000;79;21001;-61
2021/07/28 06:10:53;;;;;;;18.37;5.62;;;;;;;22.96;70.93;95833.15;1795943;80;21017;-61
2021/07/28 06:13:20;;;;;;;17.23;6.25;;;;;;;23.08;71.01;95836.89;1796226;80;21006;-61
2021/07/28 06:15:48;;;;;;;20.75;6.25;;;;;;;23.19;71.44;95831.70;1796344;79;21463;-61
2021/07/28 06:18:15;;;;;;;15.03;5.35;;;;;;;23.31;71.40;95829.55;1796453;80;21005;-61
2021/07/28 06:20:42;;;;;;;18.32;5.40;;;;;;;23.43;71.23;95822.97;1795805;80;21499;-61
2021/07/28 06:23:09;;;;;;;17.45;5.28;;;;;;;23.54;70.55;95819.09;1796512;79;21001;-61
2021/07/28 06:25:35;;;;;;;18.07;5.05;;;;;;;23.71;70.81;95824.69;1796301;80;21013;-61
2021/07/28 06:28:03;;;;;;;15.68;4.83;;;;;;;23.84;69.43;95818.02;1795954;80;20945;-61
2021/07/28 06:30:29;;;;;;;15.03;5.65;;;;;;;23.95;69.45;95815.47;1796530;79;21005;-61
2021/07/28 06:32:55;;;;;;;18.32;4.62;;;;;;;24.17;69.76;95818.91;1796194;80;20981;-61
2021/07/28 06:35:22;;;;;;;15.85;4.95;;;;;;;24.30;69.21;95821.13;1796186;79;20973;-61
2021/07/28 06:37:48;;;;;;;19.12;4.60;;;;;;;24.45;68.61;95816.53;1796115;80;21525;-62
2021/07/28 06:40:15;;;;;;;14.55;4.85;;;;;;;24.62;68.88;95815.36;1796080;80;21017;-61
2021/07/28 06:42:41;;;;;;;18.73;5.72;;;;;;;24.83;68.57;95808.91;1796203;80;21000;-61
2021/07/28 06:45:09;;;;;;;13.15;4.95;;;;;;;25.04;67.50;95810.52;1796322;80;21033;-61
2021/07/28 06:47:35;;;;;;;24.00;6.42;;;;;;;25.10;66.75;95806.05;1796361;80;21482;-61
2021/07/28 06:50:03;;;;;;;18.42;5.22;;;;;;;25.09;66.09;95811.05;1796140;80;21008;-61
2021/07/28 06:52:30;;;;;;;16.93;4.95;;;;;;;25.21;65.93;95798.53;1795961;80;21041;-61
2021/07/28 06:54:57;;;;;;;17.07;5.20;;;;;;;25.30;65.52;95797.88;1796209;79;20989;-61
2021/07/28 06:57:24;;;;;;;17.50;5.60;;;;;;;25.43;65.00;95795.12;1794897;79;21494;-61
2021/07/28 06:59:52;;;;;;;14.25;6.00;;;;;;;25.57;65.23;95794.06;1788028;80;20989;-61
2021/07/28 07:02:19;;;;;;;21.48;6.00;;;;;;;25.69;65.20;95791.30;1787829;80;21017;-62
2021/07/28 07:04:45;;;;;;;16.07;5.87;;;;;;;25.85;65.51;95791.52;1752105;80;21010;-62
2021/07/28 07:07:11;;;;;;;18.02;5.65;;;;;;;26.02;65.49;95797.00;1787314;80;20985;-61
2021/07/28 07:09:38;;;;;;;19.07;5.80;;;;;;;26.14;65.25;95793.34;1787393;80;21045;-61
2021/07/28 07:12:06;;;;;;;18.87;5.90;;;;;;;26.21;64.27;95792.39;1787313;80;21056;-61
2021/07/28 07:14:32;;;;;;;15.85;5.42;;;;;;;26.30;64.54;95783.55;1787879;80;21017;-61
2021/07/28 07:16:59;;;;;;;20.55;5.75;;;;;;;26.42;64.27;95785.28;1787467;80;21005;-61
2021/07/28 07:19:26;;;;;;;17.25;5.75;;;;;;;26.53;63.79;95788.05;1787580;80;21009;-61
2021/07/28 07:21:53;;;;;;;19.42;6.20;;;;;;;26.69;63.80;95785.48;1787333;80;21080;-61
2021/07/28 07:24:19;;;;;;;24.40;5.72;;;;;;;26.77;63.42;95780.31;1787182;80;21065;-61
2021/07/28 07:26:47;;;;;;;14.33;5.03;;;;;;;26.90;63.62;95781.53;1787711;80;21455;-61
2021/07/28 07:29:13;;;;;;;22.48;5.92;;;;;;;27.05;63.38;95780.29;1787354;80;21073;-61
2021/07/28 07:31:41;;;;;;;17.87;5.35;;;;;;;27.19;61.60;95776.00;1787570;80;20997;-61
2021/07/28 07:34:08;;;;;;;19.75;6.03;;;;;;;27.31;60.83;95774.11;1787341;80;21017;-60
2021/07/28 07:36:35;;;;;;;18.50;4.78;;;;;;;27.45;60.81;95774.34;1787331;80;21040;-61
2021/07/28 07:39:03;;;;;;;18.60;5.80;;;;;;;27.58;57.56;95766.05;1787344;80;20990;-61
2021/07/28 07:41:31;;;;;;;26.95;9.23;;;;;;;27.74;54.81;95768.31;1787553;80;21064;-61
2021/07/28 07:44:01;;;;;;;20.80;9.48;;;;;;;27.89;55.69;95765.69;1787746;80;21009;-61
2021/07/28 07:46:29;;;;;;;25.02;8.48;;;;;;;28.05;56.62;95766.13;1787827;80;20958;-60
2021/07/28 07:48:56;;;;;;;18.27;7.20;;;;;;;28.17;56.35;95764.69;1787483;80;21005;-60
2021/07/28 07:51:26;;;;;;;19.20;6.28;;;;;;;28.26;50.81;95760.69;1787675;80;21428;-61
2021/07/28 07:53:52;;;;;;;20.85;6.20;;;;;;;28.36;52.35;95762.11;1787528;80;21017;-61
2021/07/28 07:56:18;;;;;;;24.18;7.08;;;;;;;28.42;53.58;95758.84;1787851;80;20969;-61
2021/07/28 07:58:45;;;;;;;17.12;6.15;;;;;;;28.51;52.53;95754.52;1781707;80;21070;-61
2021/07/28 08:01:12;;;;;;;17.48;5.47;;;;;;;28.61;53.83;95754.06;1777496;80;21002;-61
2021/07/28 08:03:41;;;;;;;19.60;5.22;;;;;;;28.72;54.18;95759.89;1777525;80;21511;-60
2021/07/28 08:06:09;;;;;;;20.02;6.05;;;;;;;28.87;54.24;95753.61;1777915;81;21503;-61
2021/07/28 08:08:41;;;;;;;18.98;5.70;;;;;;;29.02;53.87;95745.44;1777708;81;20986;-60
2021/07/28 08:11:10;;;;;;;18.95;5.37;;;;;;;29.16;53.15;95746.10;1776423;81;21009;-61
2021/07/28 08:13:37;;;;;;;21.15;5.00;;;;;;;29.30;52.62;95747.05;1777784;81;20978;-61
2021/07/28 08:16:16;;;;;;;20.08;6.12;;;;;;;29.44;52.09;95752.09;1777883;81;21038;-61
2021/07/28 08:18:43;;;;;;;16.20;5.70;;;;;;;29.58;51.63;95745.37;1777582;81;21037;-61
2021/07/28 08:21:11;;;;;;;22.70;5.30;;;;;;;29.71;50.55;95742.41;1777833;81;21078;-61
2021/07/28 08:23:45;;;;;;;16.25;5.35;;;;;;;29.83;51.41;95737.69;1778007;81;21074;-61
2021/07/28 08:26:13;;;;;;;23.35;6.78;;;;;;;29.92;52.11;95736.34;1777808;81;21005;-61
2021/07/28 08:28:42;;;;;;;13.38;4.62;;;;;;;30.02;50.26;95735.48;1777872;80;21491;-61
2021/07/28 08:31:09;;;;;;;16.73;5.08;;;;;;;30.11;50.07;95734.59;1777863;81;21508;-60
2021/07/28 08:33:35;;;;;;;18.52;5.58;;;;;;;30.24;50.87;95728.84;1777977;81;21022;-61
2021/07/28 08:36:03;;;;;;;17.30;5.40;;;;;;;30.38;49.73;95729.27;1777921;81;21069;-61
2021/07/28 08:38:30;;;;;;;18.15;5.67;;;;;;;30.45;50.65;95729.55;1778017;81;20986;-62
2021/07/28 08:41:03;;;;;;;19.42;5.30;;;;;;;30.57;50.46;95734.33;1777698;81;21481;-61
2021/07/28 08:43:34;;;;;;;18.25;6.15;;;;;;;30.69;49.62;95735.84;1777835;81;21038;-61
2021/07/28 08:46:04;;;;;;;22.13;5.92;;;;;;;30.75;48.30;95731.69;1777813;81;21498;-61
2021/07/28 08:48:31;;;;;;;16.93;5.33;;;;;;;30.89;49.27;95727.12;1777873;81;21030;-61
2021/07/28 08:51:00;;;;;;;19.05;5.45;;;;;;;30.97;48.86;95720.44;1777794;80;21069;-61
2021/07/28 08:53:28;;;;;;;23.27;6.12;;;;;;;31.08;47.77;95717.16;1777916;80;21002;-61
2021/07/28 08:55:59;;;;;;;19.32;5.87;;;;;;;31.11;47.37;95722.30;1777368;81;20990;-61
2021/07/28 08:58:27;;;;;;;18.87;5.62;;;;;;;31.24;49.16;95718.70;1781165;80;21005;-61
2021/07/28 09:00:55;;;;;;;27.17;5.78;;;;;;;31.35;48.48;95723.95;1787715;80;21068;-61
2021/07/28 09:03:22;;;;;;;15.43;6.05;;;;;;;31.43;49.88;95713.16;1787734;80;20977;-61
2021/07/28 09:05:51;;;;;;;19.15;5.78;;;;;;;31.62;50.14;95709.41;1787750;80;21009;-61
2021/07/28 09:08:27;;;;;;;26.45;5.97;;;;;;;31.65;49.40;95709.61;1787744;80;21021;-61
2021/07/28 09:11:06;;;;;;;16.77;5.08;;;;;;;31.39;48.37;95705.44;1787563;80;21005;-61
2021/07/28 09:13:37;;;;;;;19.77;5.83;;;;;;;31.22;50.08;95698.90;1787917;80;21017;-61
2021/07/28 09:16:10;;;;;;;14.30;5.40;;;;;;;31.25;50.18;95704.08;1787601;80;21045;-61
2021/07/28 09:18:41;;;;;;;16.85;6.22;;;;;;;31.33;50.04;95705.52;1787782;80;21049;-60
2021/07/28 09:21:33;;;;;;;24.10;6.10;;;;;;;31.41;48.73;95703.41;1787681;80;21542;-61
2021/07/28 09:24:14;;;;;;;21.20;5.58;;;;;;;31.47;48.76;95702.78;1786172;80;20958;-61
2021/07/28 09:26:47;;;;;;;27.15;6.10;;;;;;;31.75;49.42;95706.30;1787649;80;21476;-61
2021/07/28 09:29:20;;;;;;;22.82;6.37;;;;;;;31.74;46.88;95708.69;1787844;80;21053;-61
2021/07/28 09:31:51;;;;;;;17.55;5.40;;;;;;;31.63;47.09;95701.60;1727530;80;21033;-60
2021/07/28 09:34:24;;;;;;;21.73;5.80;;;;;;;31.38;47.24;95698.25;1787708;80;20958;-61
2021/07/28 09:37:00;;;;;;;18.52;5.97;;;;;;;31.22;47.42;95695.70;1787685;80;21115;-61
2021/07/28 09:39:34;;;;;;;22.10;5.90;;;;;;;31.01;48.39;95700.03;1787576;80;21416;-61
2021/07/28 09:42:12;;;;;;;20.12;5.37;;;;;;;31.04;48.93;95688.81;1787599;80;21089;-61
2021/07/28 09:44:42;;;;;;;22.75;5.50;;;;;;;31.24;49.82;95685.98;1787752;80;21017;-62
2021/07/28 09:47:19;;;;;;;22.02;5.90;;;;;;;31.52;48.20;95683.23;1787809;80;20985;-61
2021/07/28 09:49:52;;;;;;;17.55;5.80;;;;;;;31.69;50.41;95679.14;1787820;80;21009;-61
2021/07/28 09:52:26;;;;;;;18.87;6.20;;;;;;;31.90;49.19;95672.49;1787040;80;21483;-61
2021/07/28 09:54:55;;;;;;;18.55;5.45;;;;;;;32.05;49.34;95675.55;1787713;80;20993;-62
2021/07/28 09:57:25;;;;;;;16.15;5.55;;;;;;;32.21;48.48;95669.38;1787689;80;20965;-61
2021/07/28 09:59:55;;;;;;;18.65;5.90;;;;;;;32.28;46.83;95668.57;1787489;80;21014;-61
2021/07/28 10:02:24;;;;;;;17.12;5.83;;;;;;;32.35;48.18;95667.39;1787599;80;20986;-61
2021/07/28 10:04:54;;;;;;;18.50;6.08;;;;;;;32.66;48.60;95654.14;1787313;80;21041;-61
2021/07/28 10:07:24;;;;;;;21.57;5.53;;;;;;;32.93;45.50;95644.83;1787662;80;21464;-61
2021/07/28 10:10:10;;;;;;;18.30;5.62;;;;;;;32.78;44.07;95631.97;1787618;80;21472;-62
2021/07/28 10:12:40;;;;;;;21.17;5.47;;;;;;;32.47;44.88;95625.66;1784465;80;21516;-61
2021/07/28 10:15:09;;;;;;;16.97;6.17;;;;;;;32.62;46.22;95615.86;1787750;80;20982;-61
2021/07/28 10:17:40;;;;;;;25.12;6.45;;;;;;;32.94;43.85;95615.65;1787822;80;21045;-61
2021/07/28 10:20:10;;;;;;;21.00;5.67;;;;;;;32.88;40.17;95628.08;1787569;80;21011;-61
2021/07/28 10:22:39;;;;;;;34.03;6.90;;;;;;;33.01;37.50;95629.48;1787619;80;21456;-61
2021/07/28 10:25:13;;;;;;;37.40;6.33;;;;;;;33.11;38.20;95642.53;1787504;80;20958;-61
2021/07/28 10:27:44;;;;;;;23.47;6.45;;;;;;;33.22;38.23;95650.44;1787635;80;21017;-61
2021/07/28 10:30:15;;;;;;;30.85;6.90;;;;;;;33.10;37.23;95660.82;1787632;80;21538;-61
2021/07/28 10:32:46;;;;;;;24.00;9.05;;;;;;;32.76;37.38;95671.26;1787997;80;21022;-62
2021/07/28 10:35:30;;;;;;;25.07;8.07;;;;;;;32.41;38.16;95687.73;1787986;80;20969;-61
2021/07/28 10:38:01;;;;;;;24.32;6.80;;;;;;;32.07;39.03;95691.27;1787938;80;21695;-61
2021/07/28 10:40:32;;;;;;;20.37;6.80;;;;;;;31.75;39.41;95698.62;1787429;80;20977;-61
2021/07/28 10:43:02;;;;;;;26.20;7.92;;;;;;;31.56;41.06;95705.96;1787641;80;21040;-61
2021/07/28 10:45:52;;;;;;;23.45;8.43;;;;;;;31.43;42.59;95702.77;1787718;80;20962;-61
2021/07/28 10:48:45;;;;;;;22.77;9.63;;;;;;;31.34;43.77;95695.47;1787563;80;20978;-62
2021/07/28 10:51:34;;;;;;;20.97;7.85;;;;;;;31.20;43.36;95696.86;1787769;80;21002;-62
2021/07/28 10:54:00;;;;;;;22.90;7.72;;;;;;;31.19;48.23;95693.25;1782192;80;21006;-61
2021/07/28 10:56:27;;;;;;;21.75;7.05;;;;;;;31.23;47.61;95678.31;1787191;80;21018;-61
2021/07/28 10:58:53;;;;;;;21.07;7.22;;;;;;;31.40;47.12;95675.78;1787442;80;21535;-62
2021/07/28 11:01:25;;;;;;;22.27;6.72;;;;;;;31.51;45.72;95669.27;1787550;80;20978;-62
2021/07/28 11:03:52;;;;;;;18.75;5.90;;;;;;;31.65;45.84;95673.67;1785216;80;21032;-61
2021/07/28 11:06:20;;;;;;;24.67;6.60;;;;;;;31.58;44.25;95674.45;1787735;80;21001;-62
2021/07/28 11:08:47;;;;;;;25.37;6.75;;;;;;;31.73;45.57;95674.73;1787526;80;20958;-61
2021/07/28 11:11:26;;;;;;;19.62;6.25;;;;;;;31.83;46.70;95685.08;1787569;80;21475;-61
2021/07/28 11:13:53;;;;;;;18.90;6.58;;;;;;;31.67;46.25;95702.13;1787704;80;20985;-62
2021/07/28 11:16:21;;;;;;;17.30;6.17;;;;;;;31.21;47.20;95699.92;1787611;80;21491;-61
2021/07/28 11:18:51;;;;;;;23.35;6.28;;;;;;;30.76;46.08;95692.02;1788052;80;21032;-61
2021/07/28 11:21:21;;;;;;;20.92;6.50;;;;;;;30.52;47.76;95693.08;1787801;80;21482;-61
2021/07/28 11:23:56;;;;;;;21.25;7.33;;;;;;;30.12;50.02;95695.51;1787671;80;21050;-61
2021/07/28 11:26:33;;;;;;;16.60;6.30;;;;;;;29.92;50.24;95699.61;1787700;80;20954;-61
2021/07/28 11:29:05;;;;;;;21.00;6.42;;;;;;;29.71;51.90;95701.61;1787956;80;21006;-61
2021/07/28 11:31:35;;;;;;;;;;;;;;;29.51;52.07;95698.02;1790432;80;21049;-61
2021/07/28 11:34:05;;;;;;;23.55;6.97;;;;;;;29.34;58.69;95701.78;1787790;80;20097;-61